Terminal Aerodrome Forecast
Issued by NWS Quad Cities IA IL

Home | Current Version | Previous Version | Text Only | Print | Product List | Glossary On
Versions: 1 2 3 4 5 6 7 8 9 10 11 12 13 14 15 16 17 18 19 20 21 22 23 24
000
FTUS43 KDVN 262013 AAB
TAFMLI
TAF AMD
KMLI 262013Z 2620/2718 VRB04KT P6SM BKN030 BKN070
     FM270000 03004KT P6SM SCT070
     FM270900 VRB03KT 3SM BR FEW003 SCT100
     FM271400 09004KT 6SM BR BKN200=

USA.gov is the U.S. government's official web portal to all federal, state and local government web resources and services.